sensor_id;sensor_type;location;lat;lon;timestamp;pressure;altitude;pressure_sealevel;temperature;humidity
84443;BME280;74681;0.000;0.000;2024-01-07T00:00:15;97462.94;;;21.61;60.61
84443;BME280;74681;0.000;0.000;2024-01-07T00:02:41;97463.75;;;21.62;60.84
84443;BME280;74681;0.000;0.000;2024-01-07T00:05:06;97460.22;;;21.61;60.90
84443;BME280;74681;0.000;0.000;2024-01-07T00:07:32;97467.28;;;21.62;60.75
84443;BME280;74681;0.000;0.000;2024-01-07T00:09:57;97468.41;;;21.61;60.57
84443;BME280;74681;0.000;0.000;2024-01-07T00:12:22;97465.69;;;21.61;60.71
84443;BME280;74681;0.000;0.000;2024-01-07T00:14:49;97466.81;;;21.60;60.52
84443;BME280;74681;0.000;0.000;2024-01-07T00:17:15;97464.91;;;21.61;60.62
84443;BME280;74681;0.000;0.000;2024-01-07T00:19:40;97461.34;;;21.60;60.48
84443;BME280;74681;0.000;0.000;2024-01-07T00:22:06;97459.44;;;21.61;60.76
84443;BME280;74681;0.000;0.000;2024-01-07T00:24:32;97457.81;;;21.60;60.44
84443;BME280;74681;0.000;0.000;2024-01-07T00:26:57;97462.47;;;21.59;60.56
84443;BME280;74681;0.000;0.000;2024-01-07T00:29:22;97461.66;;;21.59;60.52
84443;BME280;74681;0.000;0.000;2024-01-07T00:31:47;97458.94;;;21.59;60.58
84443;BME280;74681;0.000;0.000;2024-01-07T00:34:13;97458.13;;;21.58;60.56
84443;BME280;74681;0.000;0.000;2024-01-07T00:36:38;97451.53;;;21.59;60.43
84443;BME280;74681;0.000;0.000;2024-01-07T00:39:03;97445.28;;;21.59;60.55
84443;BME280;74681;0.000;0.000;2024-01-07T00:41:29;97444.47;;;21.58;60.47
84443;BME280;74681;0.000;0.000;2024-01-07T00:43:55;97454.63;;;21.58;60.50
84443;BME280;74681;0.000;0.000;2024-01-07T00:46:20;97465.53;;;21.58;60.56
84443;BME280;74681;0.000;0.000;2024-01-07T00:48:46;97462.81;;;21.58;60.51
84443;BME280;74681;0.000;0.000;2024-01-07T00:51:11;97465.53;;;21.58;60.53
84443;BME280;74681;0.000;0.000;2024-01-07T00:53:36;97468.28;;;21.58;60.34
84443;BME280;74681;0.000;0.000;2024-01-07T00:56:02;97483.84;;;21.57;60.53
84443;BME280;74681;0.000;0.000;2024-01-07T00:58:27;97475.66;;;21.57;60.57
84443;BME280;74681;0.000;0.000;2024-01-07T01:00:52;97467.78;;;21.56;60.48
84443;BME280;74681;0.000;0.000;2024-01-07T01:03:19;97462.31;;;21.56;60.44
84443;BME280;74681;0.000;0.000;2024-01-07T01:05:45;97467.78;;;21.56;60.38
84443;BME280;74681;0.000;0.000;2024-01-07T01:08:10;97462.31;;;21.56;60.50
84443;BME280;74681;0.000;0.000;2024-01-07T01:10:35;97461.19;;;21.57;60.44
84443;BME280;74681;0.000;0.000;2024-01-07T01:13:00;97469.72;;;21.55;60.43
84443;BME280;74681;0.000;0.000;2024-01-07T01:15:26;97461.53;;;21.55;60.21
84443;BME280;74681;0.000;0.000;2024-01-07T01:17:51;97460.72;;;21.55;60.32
84443;BME280;74681;0.000;0.000;2024-01-07T01:20:17;97457.19;;;21.54;60.33
84443;BME280;74681;0.000;0.000;2024-01-07T01:22:43;97449.81;;;21.55;60.48
84443;BME280;74681;0.000;0.000;2024-01-07T01:25:08;97447.88;;;21.55;60.23
84443;BME280;74681;0.000;0.000;2024-01-07T01:27:33;97451.72;;;21.54;60.37
84443;BME280;74681;0.000;0.000;2024-01-07T01:29:59;97450.13;;;21.53;60.26
84443;BME280;74681;0.000;0.000;2024-01-07T01:32:24;97453.66;;;21.54;60.26
84443;BME280;74681;0.000;0.000;2024-01-07T01:34:49;97451.72;;;21.54;60.51
84443;BME280;74681;0.000;0.000;2024-01-07T01:37:15;97446.25;;;21.54;60.18
84443;BME280;74681;0.000;0.000;2024-01-07T01:39:41;97445.81;;;21.52;60.16
84443;BME280;74681;0.000;0.000;2024-01-07T01:42:06;97453.66;;;21.54;60.29
84443;BME280;74681;0.000;0.000;2024-01-07T01:44:31;97443.84;;;21.53;60.29
84443;BME280;74681;0.000;0.000;2024-01-07T01:46:57;97448.19;;;21.54;59.89
84443;BME280;74681;0.000;0.000;2024-01-07T01:49:22;97447.38;;;21.53;60.21
84443;BME280;74681;0.000;0.000;2024-01-07T01:51:49;97451.25;;;21.52;60.05
84443;BME280;74681;0.000;0.000;2024-01-07T01:54:15;97446.91;;;21.51;60.20
84443;BME280;74681;0.000;0.000;2024-01-07T01:56:40;97440.66;;;21.51;59.96
84443;BME280;74681;0.000;0.000;2024-01-07T01:59:05;97450.44;;;21.52;60.18
84443;BME280;74681;0.000;0.000;2024-01-07T02:01:40;97435.19;;;21.51;60.22
84443;BME280;74681;0.000;0.000;2024-01-07T02:04:05;97438.72;;;21.51;60.08
84443;BME280;74681;0.000;0.000;2024-01-07T02:06:31;97435.19;;;21.51;60.41
84443;BME280;74681;0.000;0.000;2024-01-07T02:08:56;97437.91;;;21.51;60.03
84443;BME280;74681;0.000;0.000;2024-01-07T02:11:22;97437.91;;;21.51;60.06
84443;BME280;74681;0.000;0.000;2024-01-07T02:13:47;97426.19;;;21.50;60.02
84443;BME280;74681;0.000;0.000;2024-01-07T02:16:13;97422.69;;;21.50;60.18
84443;BME280;74681;0.000;0.000;2024-01-07T02:18:42;97433.59;;;21.50;59.85
84443;BME280;74681;0.000;0.000;2024-01-07T02:21:08;97434.38;;;21.50;60.04
84443;BME280;74681;0.000;0.000;2024-01-07T02:23:34;97430.88;;;21.50;60.02
84443;BME280;74681;0.000;0.000;2024-01-07T02:25:59;97426.19;;;21.50;60.01
84443;BME280;74681;0.000;0.000;2024-01-07T02:28:25;97430.06;;;21.49;60.09
84443;BME280;74681;0.000;0.000;2024-01-07T02:30:50;97421.53;;;21.51;60.13
84443;BME280;74681;0.000;0.000;2024-01-07T02:33:15;97432.78;;;21.49;60.13
84443;BME280;74681;0.000;0.000;2024-01-07T02:35:41;97430.06;;;21.49;60.17
84443;BME280;74681;0.000;0.000;2024-01-07T02:38:06;97418.34;;;21.48;59.89
84443;BME280;74681;0.000;0.000;2024-01-07T02:40:31;97417.53;;;21.48;59.84
84443;BME280;74681;0.000;0.000;2024-01-07T02:42:57;97421.06;;;21.48;60.16
84443;BME280;74681;0.000;0.000;2024-01-07T02:45:23;97412.88;;;21.48;60.09
84443;BME280;74681;0.000;0.000;2024-01-07T02:47:49;97414.47;;;21.50;60.11
84443;BME280;74681;0.000;0.000;2024-01-07T02:50:14;97408.22;;;21.49;59.97
84443;BME280;74681;0.000;0.000;2024-01-07T02:52:41;97403.06;;;21.47;59.86
84443;BME280;74681;0.000;0.000;2024-01-07T02:55:06;97405.78;;;21.47;60.07
84443;BME280;74681;0.000;0.000;2024-01-07T02:57:32;97410.13;;;21.48;60.15
84443;BME280;74681;0.000;0.000;2024-01-07T02:59:57;97398.75;;;21.46;59.86
84443;BME280;74681;0.000;0.000;2024-01-07T03:02:22;97403.06;;;21.47;60.08
84443;BME280;74681;0.000;0.000;2024-01-07T03:04:48;97401.13;;;21.48;59.92
84443;BME280;74681;0.000;0.000;2024-01-07T03:07:13;97394.06;;;21.47;59.96
84443;BME280;74681;0.000;0.000;2024-01-07T03:09:38;97394.88;;;21.47;59.99
84443;BME280;74681;0.000;0.000;2024-01-07T03:12:04;97395.69;;;21.48;60.11
84443;BME280;74681;0.000;0.000;2024-01-07T03:14:29;97396.78;;;21.47;60.00
84443;BME280;74681;0.000;0.000;2024-01-07T03:16:54;97394.06;;;21.47;60.02
84443;BME280;74681;0.000;0.000;2024-01-07T03:19:20;97392.13;;;21.47;59.97
84443;BME280;74681;0.000;0.000;2024-01-07T03:21:47;97389.41;;;21.47;60.01
84443;BME280;74681;0.000;0.000;2024-01-07T03:24:12;97385.88;;;21.47;59.84
84443;BME280;74681;0.000;0.000;2024-01-07T03:26:38;97393.28;;;21.46;59.85
84443;BME280;74681;0.000;0.000;2024-01-07T03:29:03;97393.28;;;21.46;59.83
84443;BME280;74681;0.000;0.000;2024-01-07T03:31:28;97396.00;;;21.46;59.75
84443;BME280;74681;0.000;0.000;2024-01-07T03:33:54;97387.03;;;21.46;59.89
84443;BME280;74681;0.000;0.000;2024-01-07T03:36:19;97392.47;;;21.46;59.75
84443;BME280;74681;0.000;0.000;2024-01-07T03:38:44;97386.22;;;21.45;59.65
84443;BME280;74681;0.000;0.000;2024-01-07T03:41:15;97384.59;;;21.44;59.86
84443;BME280;74681;0.000;0.000;2024-01-07T03:43:40;97381.88;;;21.44;59.76
84443;BME280;74681;0.000;0.000;2024-01-07T03:46:05;97384.59;;;21.44;59.69
84443;BME280;74681;0.000;0.000;2024-01-07T03:48:31;97378.31;;;21.44;59.80
84443;BME280;74681;0.000;0.000;2024-01-07T03:50:56;97390.88;;;21.45;59.86
84443;BME280;74681;0.000;0.000;2024-01-07T03:53:21;97388.13;;;21.45;59.69
84443;BME280;74681;0.000;0.000;2024-01-07T03:55:47;97381.06;;;21.44;59.81
84443;BME280;74681;0.000;0.000;2024-01-07T03:58:12;97385.41;;;21.45;59.67
84443;BME280;74681;0.000;0.000;2024-01-07T04:00:37;97395.53;;;21.44;59.74
84443;BME280;74681;0.000;0.000;2024-01-07T04:03:03;97392.78;;;21.44;59.80
84443;BME280;74681;0.000;0.000;2024-01-07T04:05:28;97387.66;;;21.43;59.76
84443;BME280;74681;0.000;0.000;2024-01-07T04:07:54;97381.41;;;21.42;59.66
84443;BME280;74681;0.000;0.000;2024-01-07T04:10:19;97387.66;;;21.43;59.78
84443;BME280;74681;0.000;0.000;2024-01-07T04:12:45;97388.78;;;21.42;59.68
84443;BME280;74681;0.000;0.000;2024-01-07T04:15:11;97384.13;;;21.42;59.60
84443;BME280;74681;0.000;0.000;2024-01-07T04:17:36;97386.06;;;21.42;59.76
84443;BME280;74681;0.000;0.000;2024-01-07T04:20:02;97397.78;;;21.42;59.47
84443;BME280;74681;0.000;0.000;2024-01-07T04:22:28;97391.50;;;21.42;59.54
84443;BME280;74681;0.000;0.000;2024-01-07T04:24:53;97398.13;;;21.41;59.54
84443;BME280;74681;0.000;0.000;2024-01-07T04:27:18;97394.25;;;21.42;59.61
84443;BME280;74681;0.000;0.000;2024-01-07T04:29:44;97389.94;;;21.41;59.71
84443;BME280;74681;0.000;0.000;2024-01-07T04:32:09;97396.16;;;21.41;59.53
84443;BME280;74681;0.000;0.000;2024-01-07T04:34:34;97387.97;;;21.41;59.64
84443;BME280;74681;0.000;0.000;2024-01-07T04:36:59;97389.13;;;21.40;59.63
84443;BME280;74681;0.000;0.000;2024-01-07T04:39:25;97391.84;;;21.40;59.56
84443;BME280;74681;0.000;0.000;2024-01-07T04:41:51;97395.38;;;21.41;59.60
84443;BME280;74681;0.000;0.000;2024-01-07T04:44:16;97391.84;;;21.40;59.64
84443;BME280;74681;0.000;0.000;2024-01-07T04:46:41;97395.38;;;21.41;59.72
84443;BME280;74681;0.000;0.000;2024-01-07T04:49:06;97398.91;;;21.41;59.31
84443;BME280;74681;0.000;0.000;2024-01-07T04:51:35;97402.78;;;21.40;59.54
84443;BME280;74681;0.000;0.000;2024-01-07T04:54:03;97399.25;;;21.40;59.58
84443;BME280;74681;0.000;0.000;2024-01-07T04:56:28;97395.69;;;21.39;59.53
84443;BME280;74681;0.000;0.000;2024-01-07T04:58:54;97393.78;;;21.40;59.38
84443;BME280;74681;0.000;0.000;2024-01-07T05:01:19;97394.91;;;21.39;59.56
84443;BME280;74681;0.000;0.000;2024-01-07T05:03:44;97392.16;;;21.39;59.55
84443;BME280;74681;0.000;0.000;2024-01-07T05:06:10;97397.63;;;21.39;59.47
84443;BME280;74681;0.000;0.000;2024-01-07T05:08:35;97388.63;;;21.38;59.69
84443;BME280;74681;0.000;0.000;2024-01-07T05:11:01;97396.81;;;21.38;59.51
84443;BME280;74681;0.000;0.000;2024-01-07T05:13:26;97387.84;;;21.38;59.71
84443;BME280;74681;0.000;0.000;2024-01-07T05:15:51;97402.28;;;21.38;59.42
84443;BME280;74681;0.000;0.000;2024-01-07T05:18:22;97396.03;;;21.38;59.60
84443;BME280;74681;0.000;0.000;2024-01-07T05:20:48;97392.50;;;21.37;59.53
84443;BME280;74681;0.000;0.000;2024-01-07T05:23:13;97399.53;;;21.38;59.43
84443;BME280;74681;0.000;0.000;2024-01-07T05:25:38;97396.03;;;21.38;59.68
84443;BME280;74681;0.000;0.000;2024-01-07T05:28:04;97397.16;;;21.37;59.52
84443;BME280;74681;0.000;0.000;2024-01-07T05:30:29;97404.22;;;21.38;59.61
84443;BME280;74681;0.000;0.000;2024-01-07T05:32:55;97398.78;;;21.38;59.38
84443;BME280;74681;0.000;0.000;2024-01-07T05:35:20;97390.88;;;21.36;59.63
84443;BME280;74681;0.000;0.000;2024-01-07T05:37:45;97405.00;;;21.38;59.41
84443;BME280;74681;0.000;0.000;2024-01-07T05:40:11;97403.41;;;21.37;59.80
84443;BME280;74681;0.000;0.000;2024-01-07T05:42:36;97398.44;;;21.39;60.16
84443;BME280;74681;0.000;0.000;2024-01-07T05:45:01;97399.25;;;21.40;60.18
84443;BME280;74681;0.000;0.000;2024-01-07T05:47:28;97405.81;;;21.39;60.38
84443;BME280;74681;0.000;0.000;2024-01-07T05:49:53;97399.25;;;21.40;60.34
84443;BME280;74681;0.000;0.000;2024-01-07T05:52:18;97400.03;;;21.40;60.30
84443;BME280;74681;0.000;0.000;2024-01-07T05:54:44;97393.44;;;21.41;60.58
84443;BME280;74681;0.000;0.000;2024-01-07T05:57:10;97395.38;;;21.41;60.43
84443;BME280;74681;0.000;0.000;2024-01-07T05:59:35;97394.59;;;21.40;60.44
84443;BME280;74681;0.000;0.000;2024-01-07T06:02:01;97399.72;;;21.42;60.78
84443;BME280;74681;0.000;0.000;2024-01-07T06:04:26;97395.06;;;21.42;60.68
84443;BME280;74681;0.000;0.000;2024-01-07T06:06:51;97401.31;;;21.43;60.64
84443;BME280;74681;0.000;0.000;2024-01-07T06:09:17;97405.63;;;21.44;60.72
84443;BME280;74681;0.000;0.000;2024-01-07T06:11:42;97402.91;;;21.44;60.87
84443;BME280;74681;0.000;0.000;2024-01-07T06:14:07;97399.06;;;21.45;60.79
84443;BME280;74681;0.000;0.000;2024-01-07T06:16:32;97403.41;;;21.46;60.77
84443;BME280;74681;0.000;0.000;2024-01-07T06:18:58;97405.78;;;21.47;61.01
84443;BME280;74681;0.000;0.000;2024-01-07T06:21:23;97401.13;;;21.48;61.20
84443;BME280;74681;0.000;0.000;2024-01-07T06:23:48;97405.47;;;21.49;60.97
84443;BME280;74681;0.000;0.000;2024-01-07T06:26:14;97402.75;;;21.49;61.25
84443;BME280;74681;0.000;0.000;2024-01-07T06:28:40;97406.28;;;21.50;61.15
84443;BME280;74681;0.000;0.000;2024-01-07T06:31:05;97407.06;;;21.50;61.07
84443;BME280;74681;0.000;0.000;2024-01-07T06:33:31;97406.28;;;21.50;61.33
84443;BME280;74681;0.000;0.000;2024-01-07T06:35:56;97407.88;;;21.51;61.18
84443;BME280;74681;0.000;0.000;2024-01-07T06:38:21;97411.41;;;21.51;61.11
84443;BME280;74681;0.000;0.000;2024-01-07T06:40:47;97414.16;;;21.51;61.06
84443;BME280;74681;0.000;0.000;2024-01-07T06:43:12;97410.28;;;21.52;61.21
84443;BME280;74681;0.000;0.000;2024-01-07T06:45:37;97415.75;;;21.52;61.33
84443;BME280;74681;0.000;0.000;2024-01-07T06:48:03;97417.34;;;21.53;61.39
84443;BME280;74681;0.000;0.000;2024-01-07T06:50:28;97420.88;;;21.54;61.41
84443;BME280;74681;0.000;0.000;2024-01-07T06:52:53;97419.75;;;21.55;61.32
84443;BME280;74681;0.000;0.000;2024-01-07T06:55:19;97419.75;;;21.55;61.19
84443;BME280;74681;0.000;0.000;2024-01-07T06:57:44;97422.16;;;21.56;61.55
84443;BME280;74681;0.000;0.000;2024-01-07T07:00:09;97415.88;;;21.56;61.51
84443;BME280;74681;0.000;0.000;2024-01-07T07:02:35;97415.56;;;21.57;61.78
84443;BME280;74681;0.000;0.000;2024-01-07T07:05:00;97417.16;;;21.58;61.68
84443;BME280;74681;0.000;0.000;2024-01-07T07:07:25;97419.59;;;21.60;61.72
84443;BME280;74681;0.000;0.000;2024-01-07T07:09:51;97414.44;;;21.58;61.63
84443;BME280;74681;0.000;0.000;2024-01-07T07:12:17;97424.25;;;21.59;61.80
84443;BME280;74681;0.000;0.000;2024-01-07T07:14:43;97425.03;;;21.60;61.85
84443;BME280;74681;0.000;0.000;2024-01-07T07:17:08;97418.47;;;21.61;62.07
84443;BME280;74681;0.000;0.000;2024-01-07T07:19:33;97419.09;;;21.66;62.98
84443;BME280;74681;0.000;0.000;2024-01-07T07:21:59;97421.94;;;21.70;63.22
84443;BME280;74681;0.000;0.000;2024-01-07T07:24:24;97427.56;;;21.73;63.64
84443;BME280;74681;0.000;0.000;2024-01-07T07:26:49;97430.75;;;21.75;63.36
84443;BME280;74681;0.000;0.000;2024-01-07T07:29:15;97426.56;;;21.78;63.38
84443;BME280;74681;0.000;0.000;2024-01-07T07:31:40;97427.38;;;21.78;63.40
84443;BME280;74681;0.000;0.000;2024-01-07T07:34:05;97428.66;;;21.81;63.30
84443;BME280;74681;0.000;0.000;2024-01-07T07:36:31;97431.06;;;21.82;63.40
84443;BME280;74681;0.000;0.000;2024-01-07T07:38:56;97430.56;;;21.80;63.33
84443;BME280;74681;0.000;0.000;2024-01-07T07:41:21;97435.25;;;21.80;63.53
84443;BME280;74681;0.000;0.000;2024-01-07T07:43:47;97429.00;;;21.79;63.45
84443;BME280;74681;0.000;0.000;2024-01-07T07:46:12;97429.00;;;21.79;63.47
84443;BME280;74681;0.000;0.000;2024-01-07T07:48:38;97434.91;;;21.81;63.71
84443;BME280;74681;0.000;0.000;2024-01-07T07:51:03;97428.81;;;21.84;64.19
84443;BME280;74681;0.000;0.000;2024-01-07T07:53:29;97434.59;;;21.91;64.28
84443;BME280;74681;0.000;0.000;2024-01-07T07:55:54;97433.28;;;21.97;64.40
84443;BME280;74681;0.000;0.000;2024-01-07T07:58:19;97441.63;;;22.01;64.24
84443;BME280;74681;0.000;0.000;2024-01-07T08:00:45;97445.63;;;22.03;64.95
84443;BME280;74681;0.000;0.000;2024-01-07T08:03:10;97441.78;;;22.04;65.21
84443;BME280;74681;0.000;0.000;2024-01-07T08:05:36;97440.63;;;22.05;65.45
84443;BME280;74681;0.000;0.000;2024-01-07T08:08:01;97445.78;;;22.07;65.20
84443;BME280;74681;0.000;0.000;2024-01-07T08:10:26;97448.66;;;22.11;65.34
84443;BME280;74681;0.000;0.000;2024-01-07T08:12:53;97452.97;;;22.12;65.45
84443;BME280;74681;0.000;0.000;2024-01-07T08:15:19;97457.19;;;22.09;65.26
84443;BME280;74681;0.000;0.000;2024-01-07T08:17:44;97455.25;;;22.10;65.50
84443;BME280;74681;0.000;0.000;2024-01-07T08:20:09;97456.06;;;22.10;65.31
84443;BME280;74681;0.000;0.000;2024-01-07T08:22:35;97453.31;;;22.10;65.29
84443;BME280;74681;0.000;0.000;2024-01-07T08:25:00;97457.63;;;22.11;65.25
84443;BME280;74681;0.000;0.000;2024-01-07T08:27:26;97460.38;;;22.11;65.35
84443;BME280;74681;0.000;0.000;2024-01-07T08:29:52;97465.84;;;22.11;65.37
84443;BME280;74681;0.000;0.000;2024-01-07T08:32:18;97464.72;;;22.12;65.26
84443;BME280;74681;0.000;0.000;2024-01-07T08:34:44;97470.19;;;22.12;65.28
84443;BME280;74681;0.000;0.000;2024-01-07T08:37:09;97468.25;;;22.13;65.49
84443;BME280;74681;0.000;0.000;2024-01-07T08:39:35;97475.34;;;22.14;65.84
84443;BME280;74681;0.000;0.000;2024-01-07T08:42:00;97472.13;;;22.12;64.71
84443;BME280;74681;0.000;0.000;2024-01-07T08:44:25;97479.03;;;22.09;64.73
84443;BME280;74681;0.000;0.000;2024-01-07T08:46:51;97479.38;;;22.08;65.58
84443;BME280;74681;0.000;0.000;2024-01-07T08:49:16;97488.72;;;22.07;65.73
84443;BME280;74681;0.000;0.000;2024-01-07T08:51:41;97485.66;;;22.08;66.00
84443;BME280;74681;0.000;0.000;2024-01-07T08:54:07;97479.69;;;22.06;65.88
84443;BME280;74681;0.000;0.000;2024-01-07T08:56:32;97488.72;;;22.07;66.08
84443;BME280;74681;0.000;0.000;2024-01-07T08:58:58;97491.44;;;22.07;65.62
84443;BME280;74681;0.000;0.000;2024-01-07T09:01:24;97485.50;;;22.04;65.63
84443;BME280;74681;0.000;0.000;2024-01-07T09:03:49;97495.63;;;22.04;65.69
84443;BME280;74681;0.000;0.000;2024-01-07T09:06:15;97492.91;;;22.04;65.47
84443;BME280;74681;0.000;0.000;2024-01-07T09:08:40;97494.19;;;22.07;65.60
84443;BME280;74681;0.000;0.000;2024-01-07T09:11:05;97502.69;;;22.14;66.01
84443;BME280;74681;0.000;0.000;2024-01-07T09:13:32;97500.06;;;22.17;66.46
84443;BME280;74681;0.000;0.000;2024-01-07T09:15:57;97498.59;;;22.20;66.73
84443;BME280;74681;0.000;0.000;2024-01-07T09:18:23;97503.63;;;22.18;65.80
84443;BME280;74681;0.000;0.000;2024-01-07T09:20:48;97497.69;;;22.16;65.99
84443;BME280;74681;0.000;0.000;2024-01-07T09:23:13;97502.69;;;22.14;65.92
84443;BME280;74681;0.000;0.000;2024-01-07T09:25:40;97496.06;;;22.15;65.99
84443;BME280;74681;0.000;0.000;2024-01-07T09:28:06;97499.94;;;22.14;66.07
84443;BME280;74681;0.000;0.000;2024-01-07T09:30:31;97504.59;;;22.13;65.82
84443;BME280;74681;0.000;0.000;2024-01-07T09:32:57;97501.38;;;22.11;66.07
84443;BME280;74681;0.000;0.000;2024-01-07T09:35:22;97492.06;;;22.12;65.97
84443;BME280;74681;0.000;0.000;2024-01-07T09:37:47;97492.06;;;22.12;65.92
84443;BME280;74681;0.000;0.000;2024-01-07T09:40:16;97496.72;;;22.12;65.91
84443;BME280;74681;0.000;0.000;2024-01-07T09:42:43;97486.13;;;22.10;65.64
84443;BME280;74681;0.000;0.000;2024-01-07T09:45:08;97496.91;;;22.07;64.44
84443;BME280;74681;0.000;0.000;2024-01-07T09:47:37;97494.19;;;21.98;60.61
84443;BME280;74681;0.000;0.000;2024-01-07T09:50:02;97484.72;;;21.95;60.30
84443;BME280;74681;0.000;0.000;2024-01-07T09:52:28;97485.06;;;21.94;59.77
84443;BME280;74681;0.000;0.000;2024-01-07T09:54:56;97473.81;;;21.95;60.77
84443;BME280;74681;0.000;0.000;2024-01-07T09:57:23;97489.38;;;21.95;61.18
84443;BME280;74681;0.000;0.000;2024-01-07T09:59:48;97487.00;;;21.93;61.45
84443;BME280;74681;0.000;0.000;2024-01-07T10:02:14;97478.34;;;21.91;59.69
84443;BME280;74681;0.000;0.000;2024-01-07T10:04:40;97474.28;;;21.89;58.39
84443;BME280;74681;0.000;0.000;2024-01-07T10:07:06;97480.09;;;21.87;59.61
84443;BME280;74681;0.000;0.000;2024-01-07T10:09:33;97474.63;;;21.87;59.92
84443;BME280;74681;0.000;0.000;2024-01-07T10:11:58;97484.75;;;21.87;59.89
84443;BME280;74681;0.000;0.000;2024-01-07T10:14:24;97485.56;;;21.87;60.32
84443;BME280;74681;0.000;0.000;2024-01-07T10:16:52;97471.41;;;21.85;60.54
84443;BME280;74681;0.000;0.000;2024-01-07T10:19:21;97481.53;;;21.85;60.53
84443;BME280;74681;0.000;0.000;2024-01-07T10:21:58;97472.53;;;21.84;60.41
84443;BME280;74681;0.000;0.000;2024-01-07T10:24:24;97472.53;;;21.84;60.13
84443;BME280;74681;0.000;0.000;2024-01-07T10:26:49;97470.13;;;21.83;60.22
84443;BME280;74681;0.000;0.000;2024-01-07T10:29:15;97469.78;;;21.84;60.54
84443;BME280;74681;0.000;0.000;2024-01-07T10:31:41;97468.97;;;21.84;60.49
84443;BME280;74681;0.000;0.000;2024-01-07T10:34:07;97464.97;;;21.81;60.23
84443;BME280;74681;0.000;0.000;2024-01-07T10:36:34;97468.53;;;21.82;60.34
84443;BME280;74681;0.000;0.000;2024-01-07T10:38:59;97467.72;;;21.81;60.21
84443;BME280;74681;0.000;0.000;2024-01-07T10:41:25;97464.97;;;21.81;60.25
84443;BME280;74681;0.000;0.000;2024-01-07T10:43:52;97459.84;;;21.80;60.16
84443;BME280;74681;0.000;0.000;2024-01-07T10:46:17;97459.03;;;21.79;60.40
84443;BME280;74681;0.000;0.000;2024-01-07T10:49:04;97457.91;;;21.80;60.50
84443;BME280;74681;0.000;0.000;2024-01-07T10:51:29;97455.50;;;21.79;60.26
84443;BME280;74681;0.000;0.000;2024-01-07T10:53:58;97453.88;;;21.78;60.02
84443;BME280;74681;0.000;0.000;2024-01-07T10:56:25;97455.03;;;21.77;60.33
84443;BME280;74681;0.000;0.000;2024-01-07T10:58:54;97453.13;;;21.77;60.10
84443;BME280;74681;0.000;0.000;2024-01-07T11:01:19;97450.38;;;21.77;60.04
84443;BME280;74681;0.000;0.000;2024-01-07T11:08:46;97440.09;;;21.74;60.04
84443;BME280;74681;0.000;0.000;2024-01-07T11:11:15;97442.84;;;21.74;59.82
84443;BME280;74681;0.000;0.000;2024-01-07T11:13:41;97438.50;;;21.73;59.88
84443;BME280;74681;0.000;0.000;2024-01-07T11:16:10;97441.22;;;21.73;59.92
84443;BME280;74681;0.000;0.000;2024-01-07T11:18:49;97445.06;;;21.72;59.65
84443;BME280;74681;0.000;0.000;2024-01-07T11:21:25;97442.69;;;21.71;59.47
84443;BME280;74681;0.000;0.000;2024-01-07T11:23:51;97442.34;;;21.72;59.61
84443;BME280;74681;0.000;0.000;2024-01-07T11:26:18;97448.94;;;21.71;59.31
84443;BME280;74681;0.000;0.000;2024-01-07T11:28:46;97440.25;;;21.69;59.33
84443;BME280;74681;0.000;0.000;2024-01-07T11:31:13;97434.78;;;21.69;59.38
84443;BME280;74681;0.000;0.000;2024-01-07T11:33:38;97439.47;;;21.69;59.25
84443;BME280;74681;0.000;0.000;2024-01-07T11:36:07;97444.94;;;21.69;59.31
84443;BME280;74681;0.000;0.000;2024-01-07T11:38:33;97437.88;;;21.68;59.13
84443;BME280;74681;0.000;0.000;2024-01-07T11:40:59;97443.34;;;21.68;58.95
84443;BME280;74681;0.000;0.000;2024-01-07T11:43:25;97439.78;;;21.67;58.49
84443;BME280;74681;0.000;0.000;2024-01-07T11:45:50;97437.41;;;21.66;59.03
84443;BME280;74681;0.000;0.000;2024-01-07T11:48:16;97433.06;;;21.65;59.03
84443;BME280;74681;0.000;0.000;2024-01-07T11:50:42;97443.97;;;21.65;58.98
84443;BME280;74681;0.000;0.000;2024-01-07T11:53:07;97428.41;;;21.65;58.86
84443;BME280;74681;0.000;0.000;2024-01-07T11:55:33;97441.59;;;21.63;58.39
84443;BME280;74681;0.000;0.000;2024-01-07T11:58:03;97440.44;;;21.64;58.86
84443;BME280;74681;0.000;0.000;2024-01-07T12:00:32;97438.84;;;21.63;58.45
84443;BME280;74681;0.000;0.000;2024-01-07T12:02:59;97440.78;;;21.63;58.51
84443;BME280;74681;0.000;0.000;2024-01-07T12:05:24;97436.13;;;21.63;58.54
84443;BME280;74681;0.000;0.000;2024-01-07T12:07:50;97436.44;;;21.62;58.43
84443;BME280;74681;0.000;0.000;2024-01-07T12:10:15;97439.97;;;21.62;58.21
84443;BME280;74681;0.000;0.000;2024-01-07T12:12:42;97441.09;;;21.61;58.23
84443;BME280;74681;0.000;0.000;2024-01-07T12:15:08;97434.84;;;21.61;58.36
84443;BME280;74681;0.000;0.000;2024-01-07T12:17:33;97441.44;;;21.60;57.98
84443;BME280;74681;0.000;0.000;2024-01-07T12:19:59;97435.16;;;21.59;58.10
84443;BME280;74681;0.000;0.000;2024-01-07T12:22:26;97450.75;;;21.59;58.39
84443;BME280;74681;0.000;0.000;2024-01-07T12:25:01;97445.28;;;21.59;57.92
84443;BME280;74681;0.000;0.000;2024-01-07T12:27:28;97443.69;;;21.58;58.12
84443;BME280;74681;0.000;0.000;2024-01-07T12:29:56;97441.28;;;21.56;57.76
84443;BME280;74681;0.000;0.000;2024-01-07T12:32:22;97450.28;;;21.57;58.21
84443;BME280;74681;0.000;0.000;2024-01-07T12:34:48;97442.06;;;21.57;57.93
84443;BME280;74681;0.000;0.000;2024-01-07T12:37:13;97446.72;;;21.56;57.95
84443;BME280;74681;0.000;0.000;2024-01-07T12:39:39;97439.69;;;21.55;57.77
84443;BME280;74681;0.000;0.000;2024-01-07T12:42:05;97444.34;;;21.55;57.87
84443;BME280;74681;0.000;0.000;2024-01-07T12:44:32;97447.38;;;21.53;57.53
84443;BME280;74681;0.000;0.000;2024-01-07T12:46:57;97446.56;;;21.53;57.53
84443;BME280;74681;0.000;0.000;2024-01-07T12:49:23;97447.72;;;21.52;57.59
84443;BME280;74681;0.000;0.000;2024-01-07T12:51:48;97455.56;;;21.53;57.32
84443;BME280;74681;0.000;0.000;2024-01-07T12:54:13;97465.69;;;21.53;57.72
84443;BME280;74681;0.000;0.000;2024-01-07T12:56:39;97470.69;;;21.51;56.60
84443;BME280;74681;0.000;0.000;2024-01-07T12:59:04;97466.69;;;21.48;55.67
84443;BME280;74681;0.000;0.000;2024-01-07T13:01:30;97461.88;;;21.45;54.37
84443;BME280;74681;0.000;0.000;2024-01-07T13:03:56;97455.13;;;21.42;54.19
84443;BME280;74681;0.000;0.000;2024-01-07T13:06:22;97467.97;;;21.42;55.15